createdAt,value
2022-08-22T00:00:17.890Z,69.81
2022-08-22T00:01:17.859Z,69.71
2022-08-22T00:02:17.874Z,69.81
2022-08-22T00:02:48.244Z,56.49
2022-08-22T00:02:48.677Z,57.70
2022-08-22T00:02:49.498Z,62.41
2022-08-22T00:02:49.631Z,63.32
2022-08-22T00:02:54.175Z,60.66
2022-08-22T00:02:54.492Z,63.55
2022-08-22T00:02:58.874Z,67.18
2022-08-22T00:03:00.026Z,64.79
2022-08-22T00:03:01.014Z,56.34
2022-08-22T00:03:02.136Z,51.44
2022-08-22T00:03:08.326Z,64.59
2022-08-22T00:04:17.882Z,69.41
2022-08-22T00:05:17.818Z,69.41
2022-08-22T00:06:17.829Z,69.61
2022-08-22T00:07:17.799Z,69.61
2022-08-22T00:08:17.764Z,70.01
2022-08-22T00:09:17.782Z,69.41
2022-08-22T00:10:22.795Z,69.71
2022-08-22T00:11:18.767Z,69.92
2022-08-22T00:12:17.767Z,70.12
2022-08-22T00:13:17.700Z,70.62
2022-08-22T00:14:17.755Z,70.42
2022-08-22T00:15:31.721Z,69.81
2022-08-22T00:16:18.693Z,69.71
2022-08-22T00:17:17.687Z,69.81
2022-08-22T00:18:17.648Z,70.12
2022-08-22T00:19:17.634Z,70.65
2022-08-22T00:20:17.602Z,70.62
2022-08-22T00:21:17.620Z,70.86
2022-08-22T00:22:17.585Z,70.86
2022-08-22T00:23:17.791Z,70.65
2022-08-22T00:24:17.596Z,70.86
2022-08-22T00:25:25.829Z,70.65
2022-08-22T00:26:18.522Z,71.26
2022-08-22T00:27:17.563Z,70.96
2022-08-22T00:28:17.510Z,70.76
2022-08-22T00:29:17.500Z,70.96
2022-08-22T00:30:17.494Z,71.06
2022-08-22T00:31:17.490Z,71.06
2022-08-22T00:32:17.454Z,71.16
2022-08-22T00:33:17.519Z,71.16
2022-08-22T00:34:17.439Z,70.86
2022-08-22T00:35:17.454Z,71.06
2022-08-22T00:36:17.431Z,71.26
2022-08-22T00:37:17.409Z,71.37
2022-08-22T00:38:17.402Z,71.47
2022-08-22T00:39:17.399Z,71.16
2022-08-22T00:40:17.402Z,71.06
2022-08-22T00:41:17.377Z,71.26
2022-08-22T00:42:31.424Z,70.86
2022-08-22T00:43:18.405Z,70.56
2022-08-22T00:44:17.314Z,70.35
2022-08-22T00:45:17.341Z,70.35
2022-08-22T00:46:17.306Z,70.45
2022-08-22T00:47:17.280Z,70.96
2022-08-22T00:48:17.268Z,70.65
2022-08-22T00:49:17.274Z,70.56
2022-08-22T00:50:17.252Z,70.79
2022-08-22T00:51:17.226Z,71.40
2022-08-22T00:52:17.196Z,71.00
2022-08-22T00:53:17.203Z,71.09
2022-08-22T00:54:17.623Z,71.40
2022-08-22T00:55:17.175Z,71.20
2022-08-22T00:56:17.153Z,71.40
2022-08-22T00:57:17.144Z,71.60
2022-08-22T00:58:17.183Z,71.91
2022-08-22T00:59:23.677Z,71.80
2022-08-22T01:00:18.105Z,71.70
2022-08-22T01:01:17.251Z,71.70
2022-08-22T01:02:17.104Z,71.91
2022-08-22T01:03:17.100Z,71.70
2022-08-22T01:04:17.077Z,71.80
2022-08-22T01:05:17.054Z,71.30
2022-08-22T01:06:17.102Z,71.20
2022-08-22T01:07:17.064Z,71.20
2022-08-22T01:08:17.004Z,71.09
2022-08-22T01:09:17.071Z,71.20
2022-08-22T01:10:16.983Z,71.30
2022-08-22T01:11:16.988Z,71.20
2022-08-22T01:12:16.942Z,71.23
2022-08-22T01:13:16.933Z,71.33
2022-08-22T01:14:16.954Z,71.64
2022-08-22T01:15:16.921Z,71.94
2022-08-22T01:16:20.664Z,72.04
2022-08-22T01:17:16.892Z,72.04
2022-08-22T01:18:16.891Z,72.14
2022-08-22T01:19:16.870Z,71.73
2022-08-22T01:20:16.861Z,71.33
2022-08-22T01:21:16.840Z,71.53
2022-08-22T01:22:16.835Z,71.94
2022-08-22T01:23:16.830Z,72.45
2022-08-22T01:24:16.804Z,72.65
2022-08-22T01:25:16.808Z,72.55
2022-08-22T01:26:16.848Z,72.25
2022-08-22T01:27:16.823Z,72.25
2022-08-22T01:28:16.759Z,72.34
2022-08-22T01:29:16.834Z,72.34
2022-08-22T01:30:16.727Z,72.14
2022-08-22T01:31:16.707Z,72.55
2022-08-22T01:32:16.731Z,72.85
2022-08-22T01:33:16.686Z,72.65
2022-08-22T01:34:16.679Z,72.55
2022-08-22T01:35:16.665Z,72.17
2022-08-22T01:36:16.673Z,71.88
2022-08-22T01:37:16.645Z,71.67
2022-08-22T01:38:16.605Z,72.28
2022-08-22T01:39:17.424Z,72.78
2022-08-22T01:40:16.631Z,72.48
2022-08-22T01:41:16.586Z,72.48
2022-08-22T01:42:16.565Z,72.99
2022-08-22T01:43:16.565Z,72.69
2022-08-22T01:44:16.573Z,72.69
2022-08-22T01:45:16.548Z,73.19
2022-08-22T01:46:19.565Z,72.78
2022-08-22T01:47:17.493Z,72.69
2022-08-22T01:48:16.512Z,72.78
2022-08-22T01:49:20.324Z,72.99
2022-08-22T01:50:16.501Z,73.09
2022-08-22T01:51:16.445Z,73.29
2022-08-22T01:52:19.511Z,72.89
2022-08-22T01:53:16.485Z,73.19
2022-08-22T01:54:16.423Z,73.09
2022-08-22T01:55:16.458Z,73.39
2022-08-22T01:56:16.403Z,73.50
2022-08-22T01:57:16.379Z,73.60
2022-08-22T01:58:16.391Z,73.50
2022-08-22T01:59:16.469Z,73.19
2022-08-22T02:00:16.435Z,72.69
2022-08-22T02:01:16.411Z,72.28
2022-08-22T02:02:20.104Z,72.38
2022-08-22T02:03:16.300Z,72.72
2022-08-22T02:04:20.139Z,72.62
2022-08-22T02:05:16.421Z,72.82
2022-08-22T02:06:16.324Z,73.22
2022-08-22T02:07:16.287Z,73.33
2022-08-22T02:08:16.238Z,73.33
2022-08-22T02:09:16.236Z,73.53
2022-08-22T02:10:16.228Z,73.74
2022-08-22T02:11:16.205Z,73.83
2022-08-22T02:12:21.952Z,74.04
2022-08-22T02:13:17.187Z,74.14
2022-08-22T02:14:16.187Z,74.14
2022-08-22T02:15:16.210Z,74.24
2022-08-22T02:16:16.146Z,74.28
2022-08-22T02:17:16.149Z,73.67
2022-08-22T02:18:16.152Z,73.46
2022-08-22T02:19:18.466Z,74.07
2022-08-22T02:20:16.085Z,74.38
2022-08-22T02:21:16.056Z,74.38
2022-08-22T02:22:16.055Z,74.28
2022-08-22T02:23:16.025Z,74.28
2022-08-22T02:24:16.033Z,73.97
2022-08-22T02:25:16.055Z,74.07
2022-08-22T02:26:15.994Z,73.97
2022-08-22T02:27:16.003Z,74.28
2022-08-22T02:28:16.001Z,74.18
2022-08-22T02:29:16.014Z,74.48
2022-08-22T02:30:15.963Z,74.68
2022-08-22T02:31:16.679Z,74.79
2022-08-22T02:32:19.759Z,74.92
2022-08-22T02:33:15.953Z,74.72
2022-08-22T02:34:15.918Z,74.72
2022-08-22T02:35:15.936Z,74.92
2022-08-22T02:36:15.869Z,75.02
2022-08-22T02:37:15.928Z,75.33
2022-08-22T02:38:15.843Z,75.33
2022-08-22T02:39:15.859Z,75.43
2022-08-22T02:40:15.967Z,75.23
2022-08-22T02:41:15.853Z,74.72
2022-08-22T02:42:15.811Z,74.52
2022-08-22T02:43:15.789Z,74.52
2022-08-22T02:44:15.810Z,74.52
2022-08-22T02:45:15.749Z,74.41
2022-08-22T02:46:15.737Z,74.82
2022-08-22T02:47:15.727Z,75.23
2022-08-22T02:48:15.718Z,75.53
2022-08-22T02:49:15.697Z,75.43
2022-08-22T02:50:15.888Z,75.63
2022-08-22T02:51:15.676Z,75.73
2022-08-22T02:52:15.694Z,75.73
2022-08-22T02:53:15.648Z,75.94
2022-08-22T02:54:15.648Z,75.73
2022-08-22T02:55:15.626Z,75.63
2022-08-22T02:56:15.606Z,75.84
2022-08-22T02:57:15.638Z,75.94
2022-08-22T02:58:15.590Z,75.73
2022-08-22T02:59:15.595Z,75.94
2022-08-22T03:00:30.726Z,75.94
2022-08-22T03:01:16.937Z,75.94
2022-08-22T03:02:15.577Z,76.14
2022-08-22T03:03:16.272Z,76.25
2022-08-22T03:04:15.514Z,76.25
2022-08-22T03:05:15.504Z,76.34
2022-08-22T03:06:15.473Z,76.34
2022-08-22T03:07:16.484Z,76.34
2022-08-22T03:08:15.462Z,76.34
2022-08-22T03:09:15.458Z,76.25
2022-08-22T03:10:15.461Z,76.04
2022-08-22T03:11:15.438Z,76.04
2022-08-22T03:12:15.433Z,75.94
2022-08-22T03:13:15.446Z,75.73
2022-08-22T03:14:15.391Z,75.67
2022-08-22T03:15:15.433Z,75.46
2022-08-22T03:16:15.420Z,75.43
2022-08-22T03:17:15.330Z,75.94
2022-08-22T03:18:15.333Z,76.04
2022-08-22T03:19:18.804Z,76.07
2022-08-22T03:20:15.343Z,75.98
2022-08-22T03:21:15.314Z,75.98
2022-08-22T03:22:15.391Z,76.18
2022-08-22T03:23:15.269Z,76.07
2022-08-22T03:24:15.249Z,76.18
2022-08-22T03:25:15.248Z,76.28
2022-08-22T03:26:15.276Z,76.59
2022-08-22T03:27:32.194Z,76.59
2022-08-22T03:28:16.243Z,76.18
2022-08-22T03:29:15.228Z,76.28
2022-08-22T03:30:15.190Z,76.28
2022-08-22T03:31:15.183Z,76.18
2022-08-22T03:32:15.233Z,76.07
2022-08-22T03:33:15.126Z,75.87
2022-08-22T03:34:15.186Z,75.87
2022-08-22T03:35:15.106Z,75.87
2022-08-22T03:36:15.131Z,76.07
2022-08-22T03:37:15.085Z,76.07
2022-08-22T03:38:15.066Z,76.18
2022-08-22T03:39:17.355Z,76.07
2022-08-22T03:40:15.249Z,76.28
2022-08-22T03:41:15.080Z,76.38
2022-08-22T03:42:17.401Z,76.28
2022-08-22T03:43:15.030Z,76.38
2022-08-22T03:44:15.038Z,76.38
2022-08-22T03:45:14.983Z,76.59
2022-08-22T03:46:14.956Z,76.59
2022-08-22T03:47:14.954Z,76.68
2022-08-22T03:48:14.986Z,76.79
2022-08-22T03:49:14.984Z,76.89
2022-08-22T03:50:14.940Z,77.09
2022-08-22T03:51:14.903Z,77.20
2022-08-22T03:52:14.892Z,77.20
2022-08-22T03:53:18.776Z,77.23
2022-08-22T03:54:14.887Z,77.23
2022-08-22T03:55:14.840Z,77.23
2022-08-22T03:56:14.844Z,77.44
2022-08-22T03:57:14.811Z,77.74
2022-08-22T03:58:19.168Z,77.64
2022-08-22T03:59:15.842Z,77.53
2022-08-22T04:00:14.815Z,77.64
2022-08-22T04:01:14.845Z,77.64
2022-08-22T04:02:26.196Z,78.05
2022-08-22T04:03:15.780Z,77.94
2022-08-22T04:04:14.730Z,78.15
2022-08-22T04:05:14.756Z,78.25
2022-08-22T04:06:14.749Z,78.66
2022-08-22T04:07:28.229Z,78.66
2022-08-22T04:08:15.705Z,78.66
2022-08-22T04:09:14.689Z,78.66
2022-08-22T04:10:14.752Z,78.66
2022-08-22T04:11:14.642Z,78.66
2022-08-22T04:12:14.712Z,78.76
2022-08-22T04:13:14.628Z,78.96
2022-08-22T04:14:14.642Z,79.06
2022-08-22T04:15:14.668Z,79.27
2022-08-22T04:16:14.640Z,79.37
2022-08-22T04:17:14.586Z,79.47
2022-08-22T04:18:14.571Z,79.27
2022-08-22T04:19:14.526Z,79.57
2022-08-22T04:20:16.697Z,79.68
2022-08-22T04:21:14.499Z,79.68
2022-08-22T04:22:14.526Z,79.77
2022-08-22T04:23:14.522Z,79.77
2022-08-22T04:24:14.537Z,79.88
2022-08-22T04:25:14.464Z,79.88
2022-08-22T04:26:14.452Z,79.77
2022-08-22T04:27:18.184Z,79.68
2022-08-22T04:28:14.414Z,79.88
2022-08-22T04:29:14.475Z,79.88
2022-08-22T04:30:14.406Z,79.98
2022-08-22T04:31:14.385Z,79.98
2022-08-22T04:32:14.839Z,79.98
2022-08-22T04:33:14.348Z,79.88
2022-08-22T04:34:14.360Z,80.08
2022-08-22T04:35:14.320Z,79.98
2022-08-22T04:36:14.334Z,80.08
2022-08-22T04:37:14.312Z,80.18
2022-08-22T04:38:14.333Z,80.18
2022-08-22T04:39:14.294Z,80.18
2022-08-22T04:40:14.346Z,80.29
2022-08-22T04:41:14.262Z,80.29
2022-08-22T04:42:31.650Z,80.38
2022-08-22T04:43:15.245Z,80.49
2022-08-22T04:44:14.210Z,80.59
2022-08-22T04:45:14.219Z,80.69
2022-08-22T04:46:14.911Z,80.69
2022-08-22T04:47:14.241Z,80.59
2022-08-22T04:48:14.205Z,80.59
2022-08-22T04:49:14.139Z,80.59
2022-08-22T04:50:14.166Z,80.49
2022-08-22T04:51:14.109Z,80.49
2022-08-22T04:52:14.119Z,80.49
2022-08-22T04:53:14.107Z,80.69
2022-08-22T04:54:17.899Z,80.69
2022-08-22T04:55:14.166Z,80.79
2022-08-22T04:56:14.075Z,80.90
2022-08-22T04:57:14.065Z,80.79
2022-08-22T04:58:14.068Z,80.79
2022-08-22T04:59:14.031Z,80.69
2022-08-22T05:00:14.252Z,80.59
2022-08-22T05:01:14.074Z,80.90
2022-08-22T05:02:13.986Z,80.99
2022-08-22T05:03:17.797Z,81.30
2022-08-22T05:04:13.956Z,81.30
2022-08-22T05:05:14.028Z,81.20
2022-08-22T05:06:13.925Z,81.60
2022-08-22T05:07:13.918Z,81.60
2022-08-22T05:08:17.573Z,81.40
2022-08-22T05:09:16.222Z,81.71
2022-08-22T05:10:13.925Z,81.81
2022-08-22T05:11:13.991Z,81.91
2022-08-22T05:12:13.853Z,81.71
2022-08-22T05:13:13.892Z,81.91
2022-08-22T05:14:13.866Z,82.12
2022-08-22T05:15:13.873Z,81.71
2022-08-22T05:16:13.832Z,81.71
2022-08-22T05:17:15.658Z,81.60
2022-08-22T05:18:13.809Z,81.60
2022-08-22T05:19:16.583Z,81.51
2022-08-22T05:20:13.752Z,81.71
2022-08-22T05:21:14.043Z,82.01
2022-08-22T05:22:13.761Z,82.28
2022-08-22T05:23:17.867Z,82.28
2022-08-22T05:24:13.692Z,82.18
2022-08-22T05:25:13.812Z,82.28
2022-08-22T05:26:13.745Z,82.28
2022-08-22T05:27:13.649Z,82.18
2022-08-22T05:28:13.643Z,81.98
2022-08-22T05:29:13.682Z,82.07
2022-08-22T05:30:13.643Z,82.18
2022-08-22T05:31:13.803Z,82.28
2022-08-22T05:32:13.579Z,82.18
2022-08-22T05:33:13.582Z,82.07
2022-08-22T05:34:13.558Z,82.07
2022-08-22T05:35:13.537Z,82.28
2022-08-22T05:36:13.547Z,82.38
2022-08-22T05:37:13.526Z,82.38
2022-08-22T05:38:13.546Z,82.38
2022-08-22T05:39:13.506Z,82.28
2022-08-22T05:40:13.526Z,82.18
2022-08-22T05:41:13.477Z,82.18
2022-08-22T05:42:13.466Z,82.07
2022-08-22T05:43:13.463Z,82.18
2022-08-22T05:44:13.475Z,82.34
2022-08-22T05:45:13.480Z,82.65
2022-08-22T05:46:13.407Z,82.54
2022-08-22T05:47:13.412Z,82.54
2022-08-22T05:48:13.394Z,82.65
2022-08-22T05:49:13.374Z,82.65
2022-08-22T05:50:13.359Z,82.54
2022-08-22T05:51:13.334Z,82.75
2022-08-22T05:52:13.323Z,82.75
2022-08-22T05:53:13.384Z,82.85
2022-08-22T05:54:13.299Z,82.95
2022-08-22T05:55:13.345Z,82.95
2022-08-22T05:56:13.315Z,82.95
2022-08-22T05:57:13.261Z,83.06
2022-08-22T05:58:13.262Z,82.85
2022-08-22T05:59:13.472Z,82.92
2022-08-22T06:00:13.221Z,83.01
2022-08-22T06:01:13.211Z,82.92
2022-08-22T06:02:13.291Z,82.92
2022-08-22T06:03:13.221Z,82.92
2022-08-22T06:04:13.179Z,82.81
2022-08-22T06:05:13.176Z,82.71
2022-08-22T06:06:13.187Z,83.01
2022-08-22T06:07:13.175Z,82.92
2022-08-22T06:08:13.173Z,82.81
2022-08-22T06:09:13.120Z,82.92
2022-08-22T06:10:13.124Z,82.92
2022-08-22T06:11:13.117Z,82.81
2022-08-22T06:12:21.833Z,82.81
2022-08-22T06:13:14.261Z,82.87
2022-08-22T06:14:13.104Z,82.78
2022-08-22T06:15:16.977Z,82.87
2022-08-22T06:16:13.065Z,82.78
2022-08-22T06:17:12.996Z,82.98
2022-08-22T06:18:13.015Z,82.98
2022-08-22T06:19:19.858Z,82.87
2022-08-22T06:20:14.005Z,82.78
2022-08-22T06:21:12.960Z,82.67
2022-08-22T06:22:13.809Z,82.78
2022-08-22T06:23:13.939Z,82.84
2022-08-22T06:24:12.939Z,82.94
2022-08-22T06:25:16.844Z,83.14
2022-08-22T06:26:20.425Z,83.34
2022-08-22T06:27:17.676Z,83.34
2022-08-22T06:28:12.934Z,83.24
2022-08-22T06:29:12.844Z,83.14
2022-08-22T06:30:12.854Z,83.14
2022-08-22T06:31:12.818Z,83.14
2022-08-22T06:32:12.801Z,82.84
2022-08-22T06:33:12.937Z,82.64
2022-08-22T06:34:12.772Z,82.80
2022-08-22T06:35:12.790Z,82.80
2022-08-22T06:36:12.762Z,82.70
2022-08-22T06:37:12.794Z,82.70
2022-08-22T06:38:12.857Z,82.50
2022-08-22T06:39:12.732Z,82.19
2022-08-22T06:40:12.795Z,81.44
2022-08-22T06:41:12.722Z,81.34
2022-08-22T06:42:16.453Z,80.93
2022-08-22T06:43:12.720Z,80.73
2022-08-22T06:44:12.667Z,80.83
2022-08-22T06:45:12.679Z,80.49
2022-08-22T06:46:12.751Z,80.59
2022-08-22T06:47:12.632Z,80.90
2022-08-22T06:48:12.646Z,80.49
2022-08-22T06:49:12.621Z,80.49
2022-08-22T06:50:13.567Z,80.45
2022-08-22T06:51:12.571Z,80.05
2022-08-22T06:52:12.590Z,79.03
2022-08-22T06:53:12.558Z,77.82
2022-08-22T06:54:12.558Z,77.61
2022-08-22T06:55:12.519Z,77.68
2022-08-22T06:56:12.670Z,77.88
2022-08-22T06:57:12.491Z,78.69
2022-08-22T06:58:12.480Z,77.98
2022-08-22T06:59:12.478Z,77.44
2022-08-22T07:00:12.457Z,78.05
2022-08-22T07:01:12.758Z,77.44
2022-08-22T07:02:12.446Z,76.43
2022-08-22T07:03:12.439Z,75.99
2022-08-22T07:04:12.481Z,75.68
2022-08-22T07:05:12.424Z,75.79
2022-08-22T07:06:12.408Z,75.89
2022-08-22T07:07:12.393Z,76.35
2022-08-22T07:08:12.366Z,75.34
2022-08-22T07:09:12.413Z,75.24
2022-08-22T07:10:12.370Z,74.63
2022-08-22T07:11:12.392Z,74.63
2022-08-22T07:12:12.314Z,74.80
2022-08-22T07:13:12.295Z,74.19
2022-08-22T07:14:12.974Z,73.99
2022-08-22T07:15:12.263Z,73.90
2022-08-22T07:16:12.296Z,74.10
2022-08-22T07:17:12.260Z,73.90
2022-08-22T07:18:12.233Z,73.86
2022-08-22T07:19:12.217Z,73.75
2022-08-22T07:20:12.201Z,73.55
2022-08-22T07:21:12.196Z,73.15
2022-08-22T07:22:12.182Z,73.35
2022-08-22T07:23:12.162Z,72.34
2022-08-22T07:24:12.292Z,72.21
2022-08-22T07:25:12.151Z,72.11
2022-08-22T07:26:12.131Z,72.31
2022-08-22T07:27:12.130Z,71.70
2022-08-22T07:28:15.885Z,71.50
2022-08-22T07:29:12.199Z,71.57
2022-08-22T07:30:13.055Z,71.67
2022-08-22T07:31:12.120Z,72.48
2022-08-22T07:32:12.050Z,71.06
2022-08-22T07:33:26.423Z,70.26
2022-08-22T07:34:13.051Z,70.06
2022-08-22T07:35:16.011Z,70.42
2022-08-22T07:36:12.051Z,69.92
2022-08-22T07:37:11.990Z,69.82
2022-08-22T07:38:11.997Z,69.72
2022-08-22T07:39:11.984Z,70.53
2022-08-22T07:40:11.998Z,70.39
2022-08-22T07:41:11.946Z,69.48
2022-08-22T07:42:11.960Z,68.98
2022-08-22T07:43:11.910Z,68.77
2022-08-22T07:44:11.925Z,68.77
2022-08-22T07:45:11.887Z,69.99
2022-08-22T07:46:11.910Z,69.68
2022-08-22T07:47:11.861Z,69.05
2022-08-22T07:48:11.862Z,69.05
2022-08-22T07:49:15.702Z,68.65
2022-08-22T07:50:11.834Z,68.44
2022-08-22T07:51:11.786Z,68.65
2022-08-22T07:52:11.812Z,69.35
2022-08-22T07:53:11.780Z,70.02
2022-08-22T07:54:15.492Z,69.32
2022-08-22T07:55:11.796Z,68.51
2022-08-22T07:56:11.737Z,68.31
2022-08-22T07:57:11.754Z,68.61
2022-08-22T07:58:11.745Z,68.51
2022-08-22T07:59:13.013Z,68.01
2022-08-22T08:00:11.676Z,68.08
2022-08-22T08:01:11.778Z,67.68
2022-08-22T08:02:11.636Z,67.88
2022-08-22T08:03:11.639Z,68.68
2022-08-22T08:04:11.606Z,68.28
2022-08-22T08:05:11.635Z,67.77
2022-08-22T08:06:11.584Z,67.57
2022-08-22T08:07:11.638Z,67.44
2022-08-22T08:08:12.244Z,66.94
2022-08-22T08:09:11.590Z,66.83
2022-08-22T08:10:13.246Z,66.74
2022-08-22T08:11:11.543Z,66.63
2022-08-22T08:12:11.567Z,66.83
2022-08-22T08:13:11.516Z,66.60
2022-08-22T08:14:13.669Z,66.80
2022-08-22T08:15:11.471Z,66.00
2022-08-22T08:16:11.479Z,65.80
2022-08-22T08:17:11.518Z,66.10
2022-08-22T08:18:11.485Z,66.47
2022-08-22T08:19:11.461Z,65.47
2022-08-22T08:20:11.432Z,65.67
2022-08-22T08:21:11.406Z,65.67
2022-08-22T08:22:11.405Z,66.87
2022-08-22T08:23:11.428Z,66.07
2022-08-22T08:24:11.371Z,65.97
2022-08-22T08:25:11.454Z,66.03
2022-08-22T08:26:11.358Z,64.73
2022-08-22T08:27:11.322Z,64.63
2022-08-22T08:28:11.298Z,64.83
2022-08-22T08:29:11.329Z,65.13
2022-08-22T08:30:15.231Z,66.11
2022-08-22T08:31:11.275Z,66.91
2022-08-22T08:32:11.273Z,67.71
2022-08-22T08:33:25.195Z,65.70
2022-08-22T08:34:12.228Z,65.50
2022-08-22T08:35:11.266Z,64.10
2022-08-22T08:36:11.210Z,64.00
2022-08-22T08:37:12.848Z,63.29
2022-08-22T08:38:11.196Z,63.17
2022-08-22T08:39:11.178Z,63.17
2022-08-22T08:40:11.398Z,63.56
2022-08-22T08:41:11.156Z,63.46
2022-08-22T08:42:11.200Z,63.56
2022-08-22T08:43:11.136Z,63.73
2022-08-22T08:44:11.157Z,64.43
2022-08-22T08:45:11.103Z,64.04
2022-08-22T08:46:11.108Z,63.84
2022-08-22T08:47:11.130Z,63.03
2022-08-22T08:48:11.068Z,62.90
2022-08-22T08:49:11.047Z,63.60
2022-08-22T08:50:11.065Z,65.01
2022-08-22T08:51:11.004Z,63.10
2022-08-22T08:52:10.995Z,63.00
2022-08-22T08:53:11.010Z,62.70
2022-08-22T08:54:11.055Z,62.67
2022-08-22T08:55:19.796Z,63.78
2022-08-22T08:56:11.954Z,64.28
2022-08-22T08:57:10.957Z,62.17
2022-08-22T08:58:10.941Z,62.07
2022-08-22T08:59:10.949Z,62.14
2022-08-22T09:00:10.916Z,62.54
2022-08-22T09:01:10.936Z,63.45
2022-08-22T09:02:13.734Z,62.44
2022-08-22T09:03:11.896Z,61.34
2022-08-22T09:04:15.375Z,61.51
2022-08-22T09:05:10.966Z,61.51
2022-08-22T09:06:10.823Z,62.01
2022-08-22T09:07:10.810Z,63.11
2022-08-22T09:08:11.680Z,63.71
2022-08-22T09:09:10.823Z,61.71
2022-08-22T09:10:10.791Z,61.08
2022-08-22T09:11:12.081Z,60.78
2022-08-22T09:12:10.753Z,60.88
2022-08-22T09:13:11.463Z,60.88
2022-08-22T09:14:10.721Z,61.78
2022-08-22T09:15:12.830Z,62.05
2022-08-22T09:16:10.720Z,60.55
2022-08-22T09:17:10.692Z,60.45
2022-08-22T09:18:10.694Z,59.85
2022-08-22T09:19:10.675Z,60.35
2022-08-22T09:20:17.985Z,60.95
2022-08-22T09:21:12.647Z,60.62
2022-08-22T09:22:14.460Z,62.42
2022-08-22T09:23:10.956Z,61.22
2022-08-22T09:24:10.777Z,61.92
2022-08-22T09:25:10.654Z,61.52
2022-08-22T09:26:10.614Z,59.72
2022-08-22T09:27:10.550Z,59.92
2022-08-22T09:28:10.581Z,60.39
2022-08-22T09:29:10.525Z,60.59
2022-08-22T09:31:16.827Z,59.59
2022-08-22T09:32:13.152Z,59.99
2022-08-22T09:33:10.502Z,61.49
2022-08-22T09:34:10.484Z,61.57
2022-08-22T09:35:10.472Z,60.86
2022-08-22T09:36:12.293Z,60.06
2022-08-22T09:37:13.942Z,61.16
2022-08-22T09:38:10.472Z,61.36
2022-08-22T09:39:10.415Z,60.96
2022-08-22T09:40:13.404Z,58.76
2022-08-22T09:40:15.634Z,59.99
2022-08-22T09:41:11.383Z,60.27
2022-08-22T09:42:10.365Z,61.33
2022-08-22T09:43:11.064Z,60.83
2022-08-22T09:44:12.051Z,60.53
2022-08-22T09:45:10.342Z,61.33
2022-08-22T09:46:10.316Z,58.84
2022-08-22T09:47:10.344Z,58.44
2022-08-22T09:48:10.304Z,58.64
2022-08-22T09:49:10.267Z,59.14
2022-08-22T09:50:10.275Z,58.73
2022-08-22T09:51:31.948Z,57.71
2022-08-22T09:52:15.706Z,58.41
2022-08-22T09:53:11.262Z,59.70
2022-08-22T09:54:10.214Z,60.21
2022-08-22T09:55:16.124Z,57.71
2022-08-22T09:56:15.269Z,57.39
2022-08-22T09:57:10.186Z,56.88
2022-08-22T09:58:11.244Z,56.68
2022-08-22T09:59:10.141Z,56.68
2022-08-22T10:00:10.155Z,57.09
2022-08-22T10:01:10.253Z,58.85
2022-08-22T10:02:15.771Z,58.06
2022-08-22T10:03:11.139Z,58.85
2022-08-22T10:04:10.104Z,58.65
2022-08-22T10:05:10.060Z,57.95
2022-08-22T10:06:10.069Z,56.85
2022-08-22T10:07:12.060Z,56.66
2022-08-22T10:08:11.487Z,55.66
2022-08-22T10:09:10.016Z,55.96
2022-08-22T10:10:10.037Z,56.33
2022-08-22T10:11:13.872Z,56.43
2022-08-22T10:12:12.495Z,56.03
2022-08-22T10:13:10.473Z,57.03
2022-08-22T10:14:09.941Z,57.53
2022-08-22T10:15:10.109Z,56.33
2022-08-22T10:16:09.941Z,56.30
2022-08-22T10:17:10.002Z,57.00
2022-08-22T10:18:10.503Z,57.90
2022-08-22T10:19:09.958Z,54.61
2022-08-22T10:20:09.942Z,53.81
2022-08-22T10:21:09.877Z,53.39
2022-08-22T10:22:09.895Z,54.08
2022-08-22T10:23:09.929Z,53.39
2022-08-22T10:24:09.840Z,53.69
2022-08-22T10:25:10.332Z,54.19
2022-08-22T10:26:09.797Z,53.39
2022-08-22T10:27:09.800Z,56.05
2022-08-22T10:28:10.600Z,52.76
2022-08-22T10:29:09.821Z,53.27
2022-08-22T10:30:09.736Z,53.16
2022-08-22T10:31:09.866Z,53.46
2022-08-22T10:32:14.490Z,52.86
2022-08-22T10:33:12.282Z,53.27
2022-08-22T10:34:09.686Z,51.77
2022-08-22T10:35:09.683Z,51.67
2022-08-22T10:36:12.073Z,50.98
2022-08-22T10:37:10.330Z,50.65
2022-08-22T10:38:10.765Z,50.85
2022-08-22T10:39:11.765Z,50.95
2022-08-22T10:40:09.678Z,51.95
2022-08-22T10:41:09.944Z,52.02
2022-08-22T10:42:09.714Z,52.51
2022-08-22T10:43:09.611Z,55.30
2022-08-22T10:44:09.582Z,53.41
2022-08-22T10:45:09.768Z,53.41
2022-08-22T10:46:12.557Z,52.72
2022-08-22T10:47:09.524Z,52.02
2022-08-22T10:48:10.062Z,51.32
2022-08-22T10:49:09.526Z,50.13
2022-08-22T10:50:11.480Z,48.34
2022-08-22T10:51:09.881Z,51.30
2022-08-22T10:52:16.735Z,51.70
2022-08-22T10:53:10.471Z,51.00
2022-08-22T10:54:09.446Z,47.72
2022-08-22T10:55:09.669Z,47.52
2022-08-22T10:56:09.443Z,48.41
2022-08-22T10:57:09.427Z,48.71
2022-08-22T10:58:09.416Z,49.71
2022-08-22T10:59:09.375Z,49.38
2022-08-22T11:00:09.430Z,49.29
2022-08-22T11:01:38.205Z,49.19
2022-08-22T11:02:10.419Z,49.88
2022-08-22T11:03:12.163Z,48.89
2022-08-22T11:04:12.281Z,50.35
2022-08-22T11:05:09.335Z,50.65
2022-08-22T11:06:10.298Z,47.77
2022-08-22T11:07:09.444Z,47.28
2022-08-22T11:08:09.274Z,49.14
2022-08-22T11:09:09.251Z,48.65
2022-08-22T11:10:09.251Z,48.25
2022-08-22T11:11:09.231Z,48.65
2022-08-22T11:12:09.255Z,46.04
2022-08-22T11:13:09.191Z,44.06
2022-08-22T11:14:09.251Z,44.65
2022-08-22T11:15:09.199Z,44.04
2022-08-22T11:16:09.196Z,45.42
2022-08-22T11:17:23.586Z,46.31
2022-08-22T11:18:12.955Z,46.98
2022-08-22T11:19:15.160Z,43.32
2022-08-22T11:20:10.119Z,44.31
2022-08-22T11:21:09.103Z,42.52
2022-08-22T11:22:09.955Z,43.32
2022-08-22T11:23:09.499Z,41.83
2022-08-22T11:24:09.061Z,41.91
2022-08-22T11:25:11.208Z,44.29
2022-08-22T11:26:09.058Z,42.90
2022-08-22T11:27:09.047Z,45.08
2022-08-22T11:28:09.044Z,44.59
2022-08-22T11:29:13.817Z,42.11
2022-08-22T11:30:09.991Z,42.01
2022-08-22T11:31:10.041Z,42.09
2022-08-22T11:32:08.996Z,41.49
2022-08-22T11:33:09.571Z,41.99
2022-08-22T11:34:08.992Z,41.99
2022-08-22T11:35:09.427Z,41.39
2022-08-22T11:36:08.976Z,41.89
2022-08-22T11:37:11.047Z,42.78
2022-08-22T11:38:10.926Z,43.08
2022-08-22T11:39:09.993Z,43.48
2022-08-22T11:40:13.804Z,43.57
2022-08-22T11:41:08.845Z,43.10
2022-08-22T11:42:08.865Z,41.61
2022-08-22T11:43:11.938Z,42.60
2022-08-22T11:44:09.833Z,42.80
2022-08-22T11:45:08.849Z,42.11
2022-08-22T11:46:12.646Z,41.81
2022-08-22T11:47:08.800Z,42.31
2022-08-22T11:48:08.760Z,41.71
2022-08-22T11:49:08.745Z,42.01
2022-08-22T11:50:14.071Z,42.60
2022-08-22T11:51:13.189Z,42.50
2022-08-22T11:52:08.709Z,42.71
2022-08-22T11:53:08.734Z,41.31
2022-08-22T11:54:08.712Z,42.09
2022-08-22T11:55:08.693Z,41.89
2022-08-22T11:56:08.670Z,42.19
2022-08-22T11:57:08.650Z,42.19
2022-08-22T11:58:08.642Z,43.38
2022-08-22T11:59:08.673Z,44.17
2022-08-22T12:00:08.611Z,43.28
2022-08-22T12:01:11.808Z,43.48
2022-08-22T12:02:09.640Z,44.46
2022-08-22T12:03:08.594Z,44.07
2022-08-22T12:04:09.875Z,43.08
2022-08-22T12:05:08.560Z,43.28
2022-08-22T12:06:08.605Z,43.67
2022-08-22T12:07:08.503Z,43.38
2022-08-22T12:08:08.489Z,44.37
2022-08-22T12:09:08.501Z,44.49
2022-08-22T12:10:08.486Z,43.99
2022-08-22T12:11:09.488Z,43.89
2022-08-22T12:12:08.443Z,46.47
2022-08-22T12:13:08.512Z,48.75
2022-08-22T12:14:08.429Z,47.46
2022-08-22T12:15:09.187Z,48.05
2022-08-22T12:16:08.428Z,48.65
2022-08-22T12:17:08.825Z,45.78
2022-08-22T12:18:08.374Z,46.67
2022-08-22T12:19:08.358Z,48.35
2022-08-22T12:20:16.916Z,47.75
2022-08-22T12:21:09.330Z,46.74
2022-08-22T12:22:08.317Z,44.56
2022-08-22T12:23:08.344Z,43.18
2022-08-22T12:24:11.056Z,42.78
2022-08-22T12:25:09.386Z,46.62
2022-08-22T12:26:10.753Z,44.05
2022-08-22T12:27:08.299Z,41.87
2022-08-22T12:28:08.262Z,41.87
2022-08-22T12:29:16.777Z,45.61
2022-08-22T12:30:13.763Z,45.01
2022-08-22T12:31:09.215Z,42.92
2022-08-22T12:32:10.223Z,44.20
2022-08-22T12:33:08.265Z,43.80
2022-08-22T12:34:08.164Z,44.09
2022-08-22T12:35:13.823Z,43.66
2022-08-22T12:36:18.467Z,41.99
2022-08-22T12:37:09.154Z,40.88
2022-08-22T12:38:28.166Z,41.17
2022-08-22T12:39:09.165Z,40.86
2022-08-22T12:40:08.136Z,41.36
2022-08-22T12:41:08.432Z,41.04
2022-08-22T12:42:08.084Z,40.25